Airfield :
LOGIN :

Register | Disclaimer

   EN    FR    IT 

 










Legend :    VFR   Marginal VFR   IFR   Intensive IFR   Very Intensive IFR
Visi :
Ceiling :
>= 8 km
>= 3000ft
5 to 8 km
1000 to 3000 ft
1500m to 5 km
500 to 1000 ft
800 to 1500m
200 to 500 ft
< 800m
< 200 ft
Symbols :   Thunderstorms  Fog  Heavy snow  Heavy precipitations  Wind > 20 kt
SIGMETs :     Misc.  Thunderstorms  Icing  Turbulence  Mountain Waves  Volcanic Ashes







- Airport Elevation : 325 ft
- IATA code : BES
- Download approach charts


LFRB - Brest

CURRENT METAR :
  • 222030Z AUTO 26012KT 240V300 9999 FEW026 SCT038 OVC060 15/13 Q1013 TEMPO 4000 SHRA SCT018CB BKN025

EXPIRED METARs :
  • 222000Z AUTO 26013G25KT 9999 SCT015 BKN021 BKN033 15/13 Q1013 TEMPO 4000 SHRA SCT018CB BKN025
  • 221930Z AUTO 26012KT 9999 FEW017 BKN023 BKN034 15/13 Q1012 TEMPO 4000 SHRA SCT018CB BKN025
  • 221900Z AUTO 26012G24KT 240V300 9999 FEW016/// SCT036/// BKN044/// ///TCU 15/12 Q1012 TEMPO 4000 SHRA SCT018CB BKN025
  • 221830Z AUTO 26014KT 9999 BKN017 BKN027 BKN042 15/13 Q1011 TEMPO 4000 SHRA SCT018CB BKN025
  • 221800Z AUTO 26015KT 230V290 9999 SCT019 BKN066 16/12 Q1011 TEMPO 25015G25KT 4000 SHRA SCT018CB BKN025

TAF TAF LFRB
Valid from the 22 at 18:00 until the 24 at 00:00 UTC


221700Z 2218/2324 25015G25KT 9999 SCT020 BKN040
TEMPO 2218/2303 4000 SHRA SCT018CB BKN025
BECMG 2219/2222 25012KT
BECMG 2305/2308 VRB05KT 4000 -RA BKN005
BECMG 2318/2321 31010KT 9999 NSW BKN015
PROB30
TEMPO 2321/2324 SHRA
ATIS : +33 2 98 32 02 71
No reported NOTAMs for that airfield.



MET'MAP, your aeronautical weather chart ! - Copyright ORBIFLY December 2007 - Disclaimer

ORBIFLY MET'MAP TEAM :

Programming & Development : Alexandra Zaïnal
Concept & Development : Baudouin d'Aumeries
Co-Development & Prog : Marc-Olivier Méhu
Technical & hardware support : Manuel Goepfert

Contact : metmap@orbifly.com




SOURCES & CREDITS :

   NOAA